sensor_id;sensor_type;location;lat;lon;timestamp;temperature;humidity
25438;DHT22;13364;49.084;9.978;2024-03-22T00:02:02;8.90;79.20
25438;DHT22;13364;49.084;9.978;2024-03-22T00:04:28;8.90;79.10
25438;DHT22;13364;49.084;9.978;2024-03-22T00:06:53;8.90;79.10
25438;DHT22;13364;49.084;9.978;2024-03-22T00:09:19;8.90;79.00
25438;DHT22;13364;49.084;9.978;2024-03-22T00:11:45;8.90;79.00
25438;DHT22;13364;49.084;9.978;2024-03-22T00:14:11;8.90;79.00
25438;DHT22;13364;49.084;9.978;2024-03-22T00:16:38;8.80;78.90
25438;DHT22;13364;49.084;9.978;2024-03-22T00:19:04;8.80;79.00
25438;DHT22;13364;49.084;9.978;2024-03-22T00:21:30;8.80;78.90
25438;DHT22;13364;49.084;9.978;2024-03-22T00:23:57;8.80;78.70
25438;DHT22;13364;49.084;9.978;2024-03-22T00:26:23;8.80;78.50
25438;DHT22;13364;49.084;9.978;2024-03-22T00:28:49;8.90;78.60
25438;DHT22;13364;49.084;9.978;2024-03-22T00:31:16;8.80;78.60
25438;DHT22;13364;49.084;9.978;2024-03-22T00:33:42;8.80;78.50
25438;DHT22;13364;49.084;9.978;2024-03-22T00:36:08;8.80;78.40
25438;DHT22;13364;49.084;9.978;2024-03-22T00:38:34;8.80;78.50
25438;DHT22;13364;49.084;9.978;2024-03-22T00:41:00;8.70;78.50
25438;DHT22;13364;49.084;9.978;2024-03-22T00:43:26;8.70;78.50
25438;DHT22;13364;49.084;9.978;2024-03-22T00:45:52;8.70;78.50
25438;DHT22;13364;49.084;9.978;2024-03-22T00:48:17;8.60;78.30
25438;DHT22;13364;49.084;9.978;2024-03-22T00:50:43;8.60;78.40
25438;DHT22;13364;49.084;9.978;2024-03-22T00:53:09;8.60;78.50
25438;DHT22;13364;49.084;9.978;2024-03-22T00:55:35;8.60;78.30
25438;DHT22;13364;49.084;9.978;2024-03-22T00:58:01;8.70;78.10
25438;DHT22;13364;49.084;9.978;2024-03-22T01:00:27;8.60;78.10
25438;DHT22;13364;49.084;9.978;2024-03-22T01:02:53;8.60;78.00
25438;DHT22;13364;49.084;9.978;2024-03-22T01:05:19;8.60;77.80
25438;DHT22;13364;49.084;9.978;2024-03-22T01:07:45;8.60;77.80
25438;DHT22;13364;49.084;9.978;2024-03-22T01:10:11;8.50;77.80
25438;DHT22;13364;49.084;9.978;2024-03-22T01:12:38;8.50;77.70
25438;DHT22;13364;49.084;9.978;2024-03-22T01:15:06;8.40;78.00
25438;DHT22;13364;49.084;9.978;2024-03-22T01:17:32;8.40;77.90
25438;DHT22;13364;49.084;9.978;2024-03-22T01:19:58;8.30;77.90
25438;DHT22;13364;49.084;9.978;2024-03-22T01:22:24;8.30;77.90
25438;DHT22;13364;49.084;9.978;2024-03-22T01:24:50;8.30;77.70
25438;DHT22;13364;49.084;9.978;2024-03-22T01:27:16;8.30;77.60
25438;DHT22;13364;49.084;9.978;2024-03-22T01:29:42;8.30;77.40
25438;DHT22;13364;49.084;9.978;2024-03-22T01:32:08;8.30;77.20
25438;DHT22;13364;49.084;9.978;2024-03-22T01:34:34;8.30;77.10
25438;DHT22;13364;49.084;9.978;2024-03-22T01:37:00;8.30;77.00
25438;DHT22;13364;49.084;9.978;2024-03-22T01:39:26;8.30;77.00
25438;DHT22;13364;49.084;9.978;2024-03-22T01:41:52;8.30;76.90
25438;DHT22;13364;49.084;9.978;2024-03-22T01:44:18;8.30;76.70
25438;DHT22;13364;49.084;9.978;2024-03-22T01:46:45;8.30;76.70
25438;DHT22;13364;49.084;9.978;2024-03-22T01:49:14;8.30;76.70
25438;DHT22;13364;49.084;9.978;2024-03-22T01:51:40;8.30;76.80
25438;DHT22;13364;49.084;9.978;2024-03-22T01:54:08;8.20;76.90
25438;DHT22;13364;49.084;9.978;2024-03-22T01:56:38;8.20;76.90
25438;DHT22;13364;49.084;9.978;2024-03-22T01:59:04;8.20;77.00
25438;DHT22;13364;49.084;9.978;2024-03-22T02:01:31;8.20;77.00
25438;DHT22;13364;49.084;9.978;2024-03-22T02:03:57;8.20;77.30
25438;DHT22;13364;49.084;9.978;2024-03-22T02:06:23;8.20;77.50
25438;DHT22;13364;49.084;9.978;2024-03-22T02:08:49;8.10;77.70
25438;DHT22;13364;49.084;9.978;2024-03-22T02:11:15;8.10;78.00
25438;DHT22;13364;49.084;9.978;2024-03-22T02:13:41;8.00;78.20
25438;DHT22;13364;49.084;9.978;2024-03-22T02:16:09;8.00;78.40
25438;DHT22;13364;49.084;9.978;2024-03-22T02:18:35;8.00;78.60
25438;DHT22;13364;49.084;9.978;2024-03-22T02:21:01;8.00;78.80
25438;DHT22;13364;49.084;9.978;2024-03-22T02:23:40;7.90;79.10
25438;DHT22;13364;49.084;9.978;2024-03-22T02:26:07;7.90;79.30
25438;DHT22;13364;49.084;9.978;2024-03-22T02:28:34;7.80;79.50
25438;DHT22;13364;49.084;9.978;2024-03-22T02:31:02;7.80;79.60
25438;DHT22;13364;49.084;9.978;2024-03-22T02:33:28;7.70;79.70
25438;DHT22;13364;49.084;9.978;2024-03-22T02:35:54;7.70;79.90
25438;DHT22;13364;49.084;9.978;2024-03-22T02:38:20;7.60;80.10
25438;DHT22;13364;49.084;9.978;2024-03-22T02:40:47;7.50;80.40
25438;DHT22;13364;49.084;9.978;2024-03-22T02:43:13;7.50;80.50
25438;DHT22;13364;49.084;9.978;2024-03-22T02:45:39;7.40;80.70
25438;DHT22;13364;49.084;9.978;2024-03-22T02:48:06;7.40;80.80
25438;DHT22;13364;49.084;9.978;2024-03-22T02:50:36;7.40;80.90
25438;DHT22;13364;49.084;9.978;2024-03-22T02:53:02;7.30;81.30
25438;DHT22;13364;49.084;9.978;2024-03-22T02:55:29;7.30;81.70
25438;DHT22;13364;49.084;9.978;2024-03-22T02:57:56;7.30;81.80
25438;DHT22;13364;49.084;9.978;2024-03-22T03:00:22;7.20;82.00
25438;DHT22;13364;49.084;9.978;2024-03-22T03:02:48;7.20;82.20
25438;DHT22;13364;49.084;9.978;2024-03-22T03:05:14;7.20;82.30
25438;DHT22;13364;49.084;9.978;2024-03-22T03:07:40;7.30;82.50
25438;DHT22;13364;49.084;9.978;2024-03-22T03:10:07;7.30;82.70
25438;DHT22;13364;49.084;9.978;2024-03-22T03:12:33;7.30;82.70
25438;DHT22;13364;49.084;9.978;2024-03-22T03:14:59;7.40;82.80
25438;DHT22;13364;49.084;9.978;2024-03-22T03:17:25;7.50;82.70
25438;DHT22;13364;49.084;9.978;2024-03-22T03:19:51;7.50;82.60
25438;DHT22;13364;49.084;9.978;2024-03-22T03:22:17;7.50;82.70
25438;DHT22;13364;49.084;9.978;2024-03-22T03:24:43;7.60;82.80
25438;DHT22;13364;49.084;9.978;2024-03-22T03:27:09;7.60;83.00
25438;DHT22;13364;49.084;9.978;2024-03-22T03:29:35;7.60;83.70
25438;DHT22;13364;49.084;9.978;2024-03-22T03:32:01;7.70;84.20
25438;DHT22;13364;49.084;9.978;2024-03-22T03:34:27;7.70;84.60
25438;DHT22;13364;49.084;9.978;2024-03-22T03:36:53;7.70;84.70
25438;DHT22;13364;49.084;9.978;2024-03-22T03:39:18;7.70;84.50
25438;DHT22;13364;49.084;9.978;2024-03-22T03:41:44;7.70;84.30
25438;DHT22;13364;49.084;9.978;2024-03-22T03:44:10;7.60;85.20
25438;DHT22;13364;49.084;9.978;2024-03-22T03:46:36;7.60;85.20
25438;DHT22;13364;49.084;9.978;2024-03-22T03:49:02;7.60;85.00
25438;DHT22;13364;49.084;9.978;2024-03-22T03:51:28;7.50;85.10
25438;DHT22;13364;49.084;9.978;2024-03-22T03:53:54;7.50;85.50
25438;DHT22;13364;49.084;9.978;2024-03-22T03:56:19;7.50;85.60
25438;DHT22;13364;49.084;9.978;2024-03-22T03:58:46;7.50;85.60
25438;DHT22;13364;49.084;9.978;2024-03-22T04:01:12;7.40;86.10
25438;DHT22;13364;49.084;9.978;2024-03-22T04:03:38;7.40;86.20
25438;DHT22;13364;49.084;9.978;2024-03-22T04:06:04;7.40;86.20
25438;DHT22;13364;49.084;9.978;2024-03-22T04:08:31;7.30;86.60
25438;DHT22;13364;49.084;9.978;2024-03-22T04:10:57;7.30;87.20
25438;DHT22;13364;49.084;9.978;2024-03-22T04:13:24;7.30;87.50
25438;DHT22;13364;49.084;9.978;2024-03-22T04:15:51;7.20;88.00
25438;DHT22;13364;49.084;9.978;2024-03-22T04:18:17;7.20;88.20
25438;DHT22;13364;49.084;9.978;2024-03-22T04:20:43;7.20;88.50
25438;DHT22;13364;49.084;9.978;2024-03-22T04:23:11;7.10;88.90
25438;DHT22;13364;49.084;9.978;2024-03-22T04:25:37;7.10;89.00
25438;DHT22;13364;49.084;9.978;2024-03-22T04:28:03;7.10;89.00
25438;DHT22;13364;49.084;9.978;2024-03-22T04:30:29;7.10;88.80
25438;DHT22;13364;49.084;9.978;2024-03-22T04:32:55;7.10;88.80
25438;DHT22;13364;49.084;9.978;2024-03-22T04:35:21;7.00;88.90
25438;DHT22;13364;49.084;9.978;2024-03-22T04:37:47;7.00;89.00
25438;DHT22;13364;49.084;9.978;2024-03-22T04:40:13;7.00;89.00
25438;DHT22;13364;49.084;9.978;2024-03-22T04:42:39;7.00;89.00
25438;DHT22;13364;49.084;9.978;2024-03-22T04:45:05;6.90;89.30
25438;DHT22;13364;49.084;9.978;2024-03-22T04:47:31;6.90;89.50
25438;DHT22;13364;49.084;9.978;2024-03-22T04:49:56;6.90;89.50
25438;DHT22;13364;49.084;9.978;2024-03-22T04:52:23;6.90;89.90
25438;DHT22;13364;49.084;9.978;2024-03-22T04:54:49;6.90;90.20
25438;DHT22;13364;49.084;9.978;2024-03-22T04:57:15;6.80;90.30
25438;DHT22;13364;49.084;9.978;2024-03-22T04:59:41;6.80;90.50
25438;DHT22;13364;49.084;9.978;2024-03-22T05:02:06;6.80;90.40
25438;DHT22;13364;49.084;9.978;2024-03-22T05:04:32;6.80;90.50
25438;DHT22;13364;49.084;9.978;2024-03-22T05:06:58;6.80;90.30
25438;DHT22;13364;49.084;9.978;2024-03-22T05:09:24;6.70;90.40
25438;DHT22;13364;49.084;9.978;2024-03-22T05:11:52;6.70;90.70
25438;DHT22;13364;49.084;9.978;2024-03-22T05:14:24;6.60;90.70
25438;DHT22;13364;49.084;9.978;2024-03-22T05:16:50;6.60;90.50
25438;DHT22;13364;49.084;9.978;2024-03-22T05:19:16;6.60;90.40
25438;DHT22;13364;49.084;9.978;2024-03-22T05:21:42;6.60;90.30
25438;DHT22;13364;49.084;9.978;2024-03-22T05:24:08;6.50;90.70
25438;DHT22;13364;49.084;9.978;2024-03-22T05:26:34;6.60;91.00
25438;DHT22;13364;49.084;9.978;2024-03-22T05:29:02;6.50;90.90
25438;DHT22;13364;49.084;9.978;2024-03-22T05:31:29;6.50;91.00
25438;DHT22;13364;49.084;9.978;2024-03-22T05:33:54;6.50;91.00
25438;DHT22;13364;49.084;9.978;2024-03-22T05:36:20;6.50;91.40
25438;DHT22;13364;49.084;9.978;2024-03-22T05:38:46;6.50;91.70
25438;DHT22;13364;49.084;9.978;2024-03-22T05:41:12;6.50;91.60
25438;DHT22;13364;49.084;9.978;2024-03-22T05:43:38;6.50;92.30
25438;DHT22;13364;49.084;9.978;2024-03-22T05:46:04;6.50;93.10
25438;DHT22;13364;49.084;9.978;2024-03-22T05:48:30;6.50;93.50
25438;DHT22;13364;49.084;9.978;2024-03-22T05:50:55;6.50;93.80
25438;DHT22;13364;49.084;9.978;2024-03-22T05:53:21;6.60;94.50
25438;DHT22;13364;49.084;9.978;2024-03-22T05:55:47;6.60;94.80
25438;DHT22;13364;49.084;9.978;2024-03-22T05:58:13;6.70;95.40
25438;DHT22;13364;49.084;9.978;2024-03-22T06:00:39;6.70;96.00
25438;DHT22;13364;49.084;9.978;2024-03-22T06:03:05;6.80;96.30
25438;DHT22;13364;49.084;9.978;2024-03-22T06:05:33;6.90;96.60
25438;DHT22;13364;49.084;9.978;2024-03-22T06:07:58;7.00;97.30
25438;DHT22;13364;49.084;9.978;2024-03-22T06:10:24;7.00;97.70
25438;DHT22;13364;49.084;9.978;2024-03-22T06:12:50;7.10;98.20
25438;DHT22;13364;49.084;9.978;2024-03-22T06:15:16;7.20;98.40
25438;DHT22;13364;49.084;9.978;2024-03-22T06:17:42;7.30;98.60
25438;DHT22;13364;49.084;9.978;2024-03-22T06:20:08;7.40;98.80
25438;DHT22;13364;49.084;9.978;2024-03-22T06:22:35;7.50;98.90
25438;DHT22;13364;49.084;9.978;2024-03-22T06:25:01;7.70;99.10
25438;DHT22;13364;49.084;9.978;2024-03-22T06:27:27;7.80;99.00
25438;DHT22;13364;49.084;9.978;2024-03-22T06:29:53;8.00;98.50
25438;DHT22;13364;49.084;9.978;2024-03-22T06:32:19;8.10;98.60
25438;DHT22;13364;49.084;9.978;2024-03-22T06:34:45;8.20;98.00
25438;DHT22;13364;49.084;9.978;2024-03-22T06:37:11;8.30;97.10
25438;DHT22;13364;49.084;9.978;2024-03-22T06:39:36;8.40;96.70
25438;DHT22;13364;49.084;9.978;2024-03-22T06:42:03;8.50;96.10
25438;DHT22;13364;49.084;9.978;2024-03-22T06:44:29;8.70;95.60
25438;DHT22;13364;49.084;9.978;2024-03-22T06:46:54;8.80;94.80
25438;DHT22;13364;49.084;9.978;2024-03-22T06:49:20;8.90;94.10
25438;DHT22;13364;49.084;9.978;2024-03-22T06:51:47;9.00;93.40
25438;DHT22;13364;49.084;9.978;2024-03-22T06:54:12;9.00;93.10
25438;DHT22;13364;49.084;9.978;2024-03-22T06:56:38;9.10;92.50
25438;DHT22;13364;49.084;9.978;2024-03-22T06:59:04;9.20;92.10
25438;DHT22;13364;49.084;9.978;2024-03-22T07:01:30;9.20;91.50
25438;DHT22;13364;49.084;9.978;2024-03-22T07:03:56;9.20;91.40
25438;DHT22;13364;49.084;9.978;2024-03-22T07:06:22;9.30;91.10
25438;DHT22;13364;49.084;9.978;2024-03-22T07:08:48;9.40;90.80
25438;DHT22;13364;49.084;9.978;2024-03-22T07:11:14;9.50;90.40
25438;DHT22;13364;49.084;9.978;2024-03-22T07:13:40;9.50;90.50
25438;DHT22;13364;49.084;9.978;2024-03-22T07:16:06;9.60;89.60
25438;DHT22;13364;49.084;9.978;2024-03-22T07:18:32;9.60;89.20
25438;DHT22;13364;49.084;9.978;2024-03-22T07:20:58;9.70;89.00
25438;DHT22;13364;49.084;9.978;2024-03-22T07:23:27;9.70;88.60
25438;DHT22;13364;49.084;9.978;2024-03-22T07:25:53;9.80;88.50
25438;DHT22;13364;49.084;9.978;2024-03-22T07:28:19;9.80;88.20
25438;DHT22;13364;49.084;9.978;2024-03-22T07:30:45;9.80;87.90
25438;DHT22;13364;49.084;9.978;2024-03-22T07:33:11;9.90;87.80
25438;DHT22;13364;49.084;9.978;2024-03-22T07:35:42;9.90;87.50
25438;DHT22;13364;49.084;9.978;2024-03-22T07:38:08;9.90;87.30
25438;DHT22;13364;49.084;9.978;2024-03-22T07:40:34;9.90;87.20
25438;DHT22;13364;49.084;9.978;2024-03-22T07:43:00;10.00;87.30
25438;DHT22;13364;49.084;9.978;2024-03-22T07:45:32;10.00;87.30
25438;DHT22;13364;49.084;9.978;2024-03-22T07:47:58;10.10;87.40
25438;DHT22;13364;49.084;9.978;2024-03-22T07:50:24;10.20;87.40
25438;DHT22;13364;49.084;9.978;2024-03-22T07:52:50;10.30;87.50
25438;DHT22;13364;49.084;9.978;2024-03-22T07:55:16;10.40;87.20
25438;DHT22;13364;49.084;9.978;2024-03-22T07:57:42;10.50;86.80
25438;DHT22;13364;49.084;9.978;2024-03-22T08:00:08;10.60;86.10
25438;DHT22;13364;49.084;9.978;2024-03-22T08:02:41;10.70;84.90
25438;DHT22;13364;49.084;9.978;2024-03-22T08:05:07;10.90;85.40
25438;DHT22;13364;49.084;9.978;2024-03-22T08:07:33;11.00;85.50
25438;DHT22;13364;49.084;9.978;2024-03-22T08:09:59;11.20;85.10
25438;DHT22;13364;49.084;9.978;2024-03-22T08:12:28;11.40;84.60
25438;DHT22;13364;49.084;9.978;2024-03-22T08:14:54;11.60;84.20
25438;DHT22;13364;49.084;9.978;2024-03-22T08:17:21;11.70;82.80
25438;DHT22;13364;49.084;9.978;2024-03-22T08:19:47;11.90;81.60
25438;DHT22;13364;49.084;9.978;2024-03-22T08:22:13;12.00;80.90
25438;DHT22;13364;49.084;9.978;2024-03-22T08:24:39;12.20;81.20
25438;DHT22;13364;49.084;9.978;2024-03-22T08:27:05;12.40;80.40
25438;DHT22;13364;49.084;9.978;2024-03-22T08:29:31;12.60;79.90
25438;DHT22;13364;49.084;9.978;2024-03-22T08:31:57;12.90;78.40
25438;DHT22;13364;49.084;9.978;2024-03-22T08:34:23;13.30;77.20
25438;DHT22;13364;49.084;9.978;2024-03-22T08:36:49;13.60;76.60
25438;DHT22;13364;49.084;9.978;2024-03-22T08:39:15;13.80;76.10
25438;DHT22;13364;49.084;9.978;2024-03-22T08:41:41;14.10;75.90
25438;DHT22;13364;49.084;9.978;2024-03-22T08:44:07;14.20;74.00
25438;DHT22;13364;49.084;9.978;2024-03-22T08:46:33;14.40;74.20
25438;DHT22;13364;49.084;9.978;2024-03-22T08:48:59;14.50;72.30
25438;DHT22;13364;49.084;9.978;2024-03-22T08:51:25;14.60;73.70
25438;DHT22;13364;49.084;9.978;2024-03-22T08:53:51;14.70;72.00
25438;DHT22;13364;49.084;9.978;2024-03-22T08:56:17;14.80;71.80
25438;DHT22;13364;49.084;9.978;2024-03-22T08:58:43;15.00;71.10
25438;DHT22;13364;49.084;9.978;2024-03-22T09:01:09;15.10;66.80
25438;DHT22;13364;49.084;9.978;2024-03-22T09:03:36;15.10;66.40
25438;DHT22;13364;49.084;9.978;2024-03-22T09:06:02;15.10;66.50
25438;DHT22;13364;49.084;9.978;2024-03-22T09:08:28;15.30;66.10
25438;DHT22;13364;49.084;9.978;2024-03-22T09:10:55;15.30;66.20
25438;DHT22;13364;49.084;9.978;2024-03-22T09:13:21;15.30;65.70
25438;DHT22;13364;49.084;9.978;2024-03-22T09:15:47;15.50;65.70
25438;DHT22;13364;49.084;9.978;2024-03-22T09:18:13;15.60;65.50
25438;DHT22;13364;49.084;9.978;2024-03-22T09:20:39;15.60;66.00
25438;DHT22;13364;49.084;9.978;2024-03-22T09:23:05;15.70;64.60
25438;DHT22;13364;49.084;9.978;2024-03-22T09:25:31;15.70;64.20
25438;DHT22;13364;49.084;9.978;2024-03-22T09:27:57;15.70;64.50
25438;DHT22;13364;49.084;9.978;2024-03-22T09:30:23;15.70;64.40
25438;DHT22;13364;49.084;9.978;2024-03-22T09:32:49;15.80;64.60
25438;DHT22;13364;49.084;9.978;2024-03-22T09:35:17;15.80;63.50
25438;DHT22;13364;49.084;9.978;2024-03-22T09:37:43;15.80;65.10
25438;DHT22;13364;49.084;9.978;2024-03-22T09:40:10;15.90;65.70
25438;DHT22;13364;49.084;9.978;2024-03-22T09:42:41;16.00;65.00
25438;DHT22;13364;49.084;9.978;2024-03-22T09:45:11;16.10;64.60
25438;DHT22;13364;49.084;9.978;2024-03-22T09:47:37;16.20;64.50
25438;DHT22;13364;49.084;9.978;2024-03-22T09:50:06;16.30;63.50
25438;DHT22;13364;49.084;9.978;2024-03-22T09:52:33;16.30;63.70
25438;DHT22;13364;49.084;9.978;2024-03-22T09:54:59;16.40;65.10
25438;DHT22;13364;49.084;9.978;2024-03-22T09:57:26;16.50;64.00
25438;DHT22;13364;49.084;9.978;2024-03-22T09:59:52;16.50;64.10
25438;DHT22;13364;49.084;9.978;2024-03-22T10:02:18;16.60;63.00
25438;DHT22;13364;49.084;9.978;2024-03-22T10:04:45;16.50;62.30
25438;DHT22;13364;49.084;9.978;2024-03-22T10:07:11;16.50;62.20
25438;DHT22;13364;49.084;9.978;2024-03-22T10:09:37;16.50;63.30
25438;DHT22;13364;49.084;9.978;2024-03-22T10:12:03;16.60;63.50
25438;DHT22;13364;49.084;9.978;2024-03-22T10:14:30;16.70;62.90
25438;DHT22;13364;49.084;9.978;2024-03-22T10:16:57;16.80;62.40
25438;DHT22;13364;49.084;9.978;2024-03-22T10:19:24;16.90;60.60
25438;DHT22;13364;49.084;9.978;2024-03-22T10:22:00;16.90;60.40
25438;DHT22;13364;49.084;9.978;2024-03-22T10:24:26;16.70;61.30
25438;DHT22;13364;49.084;9.978;2024-03-22T10:26:52;16.70;61.20
25438;DHT22;13364;49.084;9.978;2024-03-22T10:29:18;16.70;62.70
25438;DHT22;13364;49.084;9.978;2024-03-22T10:31:45;16.80;62.70
25438;DHT22;13364;49.084;9.978;2024-03-22T10:34:14;16.90;61.20
25438;DHT22;13364;49.084;9.978;2024-03-22T10:36:41;16.90;60.10
25438;DHT22;13364;49.084;9.978;2024-03-22T10:39:08;16.80;61.40
25438;DHT22;13364;49.084;9.978;2024-03-22T10:41:37;16.80;60.30
25438;DHT22;13364;49.084;9.978;2024-03-22T10:44:03;16.90;61.90
25438;DHT22;13364;49.084;9.978;2024-03-22T10:46:30;17.00;61.10
25438;DHT22;13364;49.084;9.978;2024-03-22T10:49:00;17.10;62.20
25438;DHT22;13364;49.084;9.978;2024-03-22T10:51:30;17.20;62.00
25438;DHT22;13364;49.084;9.978;2024-03-22T10:53:59;17.40;61.90
25438;DHT22;13364;49.084;9.978;2024-03-22T10:56:27;17.50;61.30
25438;DHT22;13364;49.084;9.978;2024-03-22T10:58:53;17.70;60.90
25438;DHT22;13364;49.084;9.978;2024-03-22T11:01:23;17.90;59.90
25438;DHT22;13364;49.084;9.978;2024-03-22T11:03:49;17.90;58.90
25438;DHT22;13364;49.084;9.978;2024-03-22T11:06:19;17.90;56.80
25438;DHT22;13364;49.084;9.978;2024-03-22T11:08:50;17.80;57.30
25438;DHT22;13364;49.084;9.978;2024-03-22T11:11:18;17.80;58.50
25438;DHT22;13364;49.084;9.978;2024-03-22T11:13:47;18.00;58.80
25438;DHT22;13364;49.084;9.978;2024-03-22T11:16:16;18.10;58.50
25438;DHT22;13364;49.084;9.978;2024-03-22T11:18:42;18.20;57.90
25438;DHT22;13364;49.084;9.978;2024-03-22T11:21:08;18.30;57.90
25438;DHT22;13364;49.084;9.978;2024-03-22T11:23:37;18.40;57.80
25438;DHT22;13364;49.084;9.978;2024-03-22T11:26:03;18.50;57.30
25438;DHT22;13364;49.084;9.978;2024-03-22T11:28:30;18.70;56.30
25438;DHT22;13364;49.084;9.978;2024-03-22T11:30:56;18.60;54.10
25438;DHT22;13364;49.084;9.978;2024-03-22T11:33:22;18.60;55.50
25438;DHT22;13364;49.084;9.978;2024-03-22T11:35:48;18.60;55.50
25438;DHT22;13364;49.084;9.978;2024-03-22T11:38:16;18.70;56.10
25438;DHT22;13364;49.084;9.978;2024-03-22T11:40:44;18.80;55.30
25438;DHT22;13364;49.084;9.978;2024-03-22T11:43:11;18.90;54.60
25438;DHT22;13364;49.084;9.978;2024-03-22T11:45:37;19.00;54.20
25438;DHT22;13364;49.084;9.978;2024-03-22T11:48:03;19.00;54.30
25438;DHT22;13364;49.084;9.978;2024-03-22T11:50:29;19.10;55.20
25438;DHT22;13364;49.084;9.978;2024-03-22T11:52:56;19.20;52.70
25438;DHT22;13364;49.084;9.978;2024-03-22T11:55:22;19.30;53.60
25438;DHT22;13364;49.084;9.978;2024-03-22T11:57:48;19.50;53.90
25438;DHT22;13364;49.084;9.978;2024-03-22T12:00:16;19.60;51.20
25438;DHT22;13364;49.084;9.978;2024-03-22T12:02:43;19.70;50.80
25438;DHT22;13364;49.084;9.978;2024-03-22T12:05:09;19.80;49.90
25438;DHT22;13364;49.084;9.978;2024-03-22T12:07:36;19.80;50.40
25438;DHT22;13364;49.084;9.978;2024-03-22T12:10:03;19.70;49.00
25438;DHT22;13364;49.084;9.978;2024-03-22T12:12:29;19.60;49.50
25438;DHT22;13364;49.084;9.978;2024-03-22T12:14:56;19.50;51.00
25438;DHT22;13364;49.084;9.978;2024-03-22T12:17:21;19.50;51.10
25438;DHT22;13364;49.084;9.978;2024-03-22T12:19:47;19.40;50.20
25438;DHT22;13364;49.084;9.978;2024-03-22T12:22:13;19.40;50.10
25438;DHT22;13364;49.084;9.978;2024-03-22T12:24:39;19.40;50.40
25438;DHT22;13364;49.084;9.978;2024-03-22T12:27:05;19.40;50.90
25438;DHT22;13364;49.084;9.978;2024-03-22T12:29:34;19.50;49.10
25438;DHT22;13364;49.084;9.978;2024-03-22T12:32:02;19.50;49.70
25438;DHT22;13364;49.084;9.978;2024-03-22T12:34:32;19.50;50.10
25438;DHT22;13364;49.084;9.978;2024-03-22T12:36:59;19.60;49.50
25438;DHT22;13364;49.084;9.978;2024-03-22T12:39:25;19.60;48.30
25438;DHT22;13364;49.084;9.978;2024-03-22T12:41:51;19.50;48.30
25438;DHT22;13364;49.084;9.978;2024-03-22T12:44:18;19.40;47.70
25438;DHT22;13364;49.084;9.978;2024-03-22T12:46:44;19.30;47.50
25438;DHT22;13364;49.084;9.978;2024-03-22T12:49:11;19.20;48.00
25438;DHT22;13364;49.084;9.978;2024-03-22T12:51:38;19.10;46.70
25438;DHT22;13364;49.084;9.978;2024-03-22T12:54:04;18.90;47.50
25438;DHT22;13364;49.084;9.978;2024-03-22T12:56:31;18.90;48.20
25438;DHT22;13364;49.084;9.978;2024-03-22T12:58:58;18.90;47.90
25438;DHT22;13364;49.084;9.978;2024-03-22T13:01:24;18.90;48.60
25438;DHT22;13364;49.084;9.978;2024-03-22T13:03:50;18.80;48.10
25438;DHT22;13364;49.084;9.978;2024-03-22T13:06:17;18.70;48.40
25438;DHT22;13364;49.084;9.978;2024-03-22T13:08:43;18.70;47.70
25438;DHT22;13364;49.084;9.978;2024-03-22T13:11:09;18.70;48.80
25438;DHT22;13364;49.084;9.978;2024-03-22T13:13:38;18.70;48.60
25438;DHT22;13364;49.084;9.978;2024-03-22T13:16:04;18.60;48.30
25438;DHT22;13364;49.084;9.978;2024-03-22T13:18:30;18.50;48.50
25438;DHT22;13364;49.084;9.978;2024-03-22T13:20:56;18.40;49.00
25438;DHT22;13364;49.084;9.978;2024-03-22T13:23:22;18.40;49.90
25438;DHT22;13364;49.084;9.978;2024-03-22T13:25:48;18.40;50.30
25438;DHT22;13364;49.084;9.978;2024-03-22T13:28:15;18.40;49.40
25438;DHT22;13364;49.084;9.978;2024-03-22T13:30:45;18.40;49.00
25438;DHT22;13364;49.084;9.978;2024-03-22T13:33:12;18.30;50.00
25438;DHT22;13364;49.084;9.978;2024-03-22T13:35:37;18.30;49.20
25438;DHT22;13364;49.084;9.978;2024-03-22T13:38:03;18.30;50.00
25438;DHT22;13364;49.084;9.978;2024-03-22T13:40:29;18.30;49.70
25438;DHT22;13364;49.084;9.978;2024-03-22T13:42:55;18.30;49.70
25438;DHT22;13364;49.084;9.978;2024-03-22T13:45:21;18.30;50.30
25438;DHT22;13364;49.084;9.978;2024-03-22T13:47:47;18.40;49.80
25438;DHT22;13364;49.084;9.978;2024-03-22T13:50:13;18.40;50.10
25438;DHT22;13364;49.084;9.978;2024-03-22T13:52:39;18.30;50.00
25438;DHT22;13364;49.084;9.978;2024-03-22T13:55:05;18.30;51.90
25438;DHT22;13364;49.084;9.978;2024-03-22T13:57:31;18.40;51.40
25438;DHT22;13364;49.084;9.978;2024-03-22T13:59:58;18.40;50.10
25438;DHT22;13364;49.084;9.978;2024-03-22T14:02:24;18.30;50.90
25438;DHT22;13364;49.084;9.978;2024-03-22T14:04:50;18.30;52.30
25438;DHT22;13364;49.084;9.978;2024-03-22T14:07:16;18.40;51.30
25438;DHT22;13364;49.084;9.978;2024-03-22T14:09:42;18.50;51.70
25438;DHT22;13364;49.084;9.978;2024-03-22T14:12:09;18.50;51.10
25438;DHT22;13364;49.084;9.978;2024-03-22T14:14:35;18.50;52.20
25438;DHT22;13364;49.084;9.978;2024-03-22T14:17:01;18.50;50.70
25438;DHT22;13364;49.084;9.978;2024-03-22T14:19:26;18.40;51.00
25438;DHT22;13364;49.084;9.978;2024-03-22T14:21:52;18.40;50.80
25438;DHT22;13364;49.084;9.978;2024-03-22T14:24:18;18.40;51.20
25438;DHT22;13364;49.084;9.978;2024-03-22T14:26:44;18.30;51.10
25438;DHT22;13364;49.084;9.978;2024-03-22T14:29:10;18.40;50.10
25438;DHT22;13364;49.084;9.978;2024-03-22T14:31:37;18.50;52.10
25438;DHT22;13364;49.084;9.978;2024-03-22T14:34:05;18.60;51.10
25438;DHT22;13364;49.084;9.978;2024-03-22T14:36:31;18.60;51.50
25438;DHT22;13364;49.084;9.978;2024-03-22T14:38:58;18.70;50.30
25438;DHT22;13364;49.084;9.978;2024-03-22T14:41:24;18.70;50.60
25438;DHT22;13364;49.084;9.978;2024-03-22T14:43:50;18.70;51.00
25438;DHT22;13364;49.084;9.978;2024-03-22T14:46:16;18.60;50.90
25438;DHT22;13364;49.084;9.978;2024-03-22T14:48:46;18.60;51.70
25438;DHT22;13364;49.084;9.978;2024-03-22T14:51:12;18.60;51.50
25438;DHT22;13364;49.084;9.978;2024-03-22T14:53:37;18.50;51.30
25438;DHT22;13364;49.084;9.978;2024-03-22T14:56:04;18.50;51.10
25438;DHT22;13364;49.084;9.978;2024-03-22T14:58:34;18.50;51.30
25438;DHT22;13364;49.084;9.978;2024-03-22T15:01:01;18.50;50.90
25438;DHT22;13364;49.084;9.978;2024-03-22T15:03:27;18.50;51.30
25438;DHT22;13364;49.084;9.978;2024-03-22T15:05:55;18.50;52.20
25438;DHT22;13364;49.084;9.978;2024-03-22T15:08:22;18.50;51.70
25438;DHT22;13364;49.084;9.978;2024-03-22T15:10:49;18.50;51.60
25438;DHT22;13364;49.084;9.978;2024-03-22T15:13:16;18.50;52.20
25438;DHT22;13364;49.084;9.978;2024-03-22T15:15:42;18.50;51.40
25438;DHT22;13364;49.084;9.978;2024-03-22T15:18:08;18.50;52.20
25438;DHT22;13364;49.084;9.978;2024-03-22T15:20:35;18.40;52.60
25438;DHT22;13364;49.084;9.978;2024-03-22T15:23:02;18.40;51.60
25438;DHT22;13364;49.084;9.978;2024-03-22T15:25:29;18.30;50.80
25438;DHT22;13364;49.084;9.978;2024-03-22T15:27:55;18.20;51.30
25438;DHT22;13364;49.084;9.978;2024-03-22T15:30:21;18.20;52.30
25438;DHT22;13364;49.084;9.978;2024-03-22T15:32:47;18.10;52.90